TAIP22 YSNW-YSNW
Flight info
| Callsign | TAIP22 |
|---|---|
| Flight time | N/A |
| Altitude | 5500 |
| Route | YGLB DCT YJBY |
| Aircraft | C172/L-SFG/C |
Departure
| Time | 2026-04-18 09:13 |
|---|---|
| Airport | Naval Air Station Nowra - HMAS Albatross (YSNW) |
Arrival
| Time | N/A |
|---|---|
| Airport | Naval Air Station Nowra - HMAS Albatross (YSNW) |
| Time | Latitude | Longitude | Altitude | Speed | Heading |
|---|---|---|---|---|---|
| 2026-04-18 09:01 | -34.94448 | 150.53519 | 353 ft | 0 kts | 45° |
| 2026-04-18 09:06 | -34.94441 | 150.53534 | 362 ft | 6 kts | 50° |
| 2026-04-18 09:07 | -34.94410 | 150.53612 | 362 ft | 13 kts | 57° |
| 2026-04-18 09:07 | -34.94367 | 150.53728 | 366 ft | 12 kts | 57° |
| 2026-04-18 09:07 | -34.94311 | 150.53832 | 410 ft | 16 kts | 57° |
| 2026-04-18 09:07 | -34.94240 | 150.53958 | 449 ft | 21 kts | 57° |
| 2026-04-18 09:08 | -34.94171 | 150.54134 | 459 ft | 32 kts | 79° |
| 2026-04-18 09:08 | -34.94179 | 150.54193 | 454 ft | 7 kts | 307° |
| 2026-04-18 09:08 | -34.94142 | 150.54102 | 430 ft | 15 kts | 287° |
| 2026-04-18 09:08 | -34.94115 | 150.54062 | 428 ft | 1 kts | 286° |
| 2026-04-18 09:09 | -34.94112 | 150.54057 | 437 ft | 1 kts | 286° |
| 2026-04-18 09:09 | -34.94110 | 150.54056 | 442 ft | 0 kts | 286° |
| 2026-04-18 09:09 | -34.94111 | 150.54051 | 444 ft | 1 kts | 286° |
| 2026-04-18 09:09 | -34.94107 | 150.54048 | 457 ft | 1 kts | 286° |
| 2026-04-18 09:10 | -34.94109 | 150.54053 | 451 ft | 0 kts | 286° |
| 2026-04-18 09:10 | -34.94109 | 150.54045 | 450 ft | 1 kts | 286° |
| 2026-04-18 09:10 | -34.94113 | 150.54039 | 437 ft | 0 kts | 286° |
| 2026-04-18 09:10 | -34.94111 | 150.54034 | 441 ft | 3 kts | 286° |
| 2026-04-18 09:11 | -34.94078 | 150.53966 | 499 ft | 24 kts | 286° |
| 2026-04-18 09:11 | -34.93989 | 150.53719 | 616 ft | 32 kts | 286° |
| 2026-04-18 09:11 | -34.93882 | 150.53589 | 577 ft | 15 kts | 295° |
| 2026-04-18 09:11 | -34.93786 | 150.53598 | 587 ft | 30 kts | 27° |
| 2026-04-18 09:12 | -34.93660 | 150.53912 | 625 ft | 53 kts | 76° |
| 2026-04-18 09:12 | -34.93749 | 150.54321 | 657 ft | 56 kts | 153° |
| 2026-04-18 09:12 | -34.94076 | 150.54126 | 649 ft | 61 kts | 245° |
| 2026-04-18 09:12 | -34.93902 | 150.53577 | 608 ft | 83 kts | 303° |
| 2026-04-18 09:13 | -34.93646 | 150.52925 | 712 ft | 85 kts | 288° |
| 2026-04-18 09:13 | -34.93456 | 150.52234 | 824 ft | 86 kts | 280° |
| 2026-04-18 09:13 | -34.93292 | 150.51531 | 996 ft | 91 kts | 281° |
| 2026-04-18 09:13 | -34.93144 | 150.50751 | 1195 ft | 100 kts | 279° |
| 2026-04-18 09:14 | -34.93039 | 150.49898 | 1412 ft | 98 kts | 277° |
| 2026-04-18 09:14 | -34.92895 | 150.49106 | 1614 ft | 99 kts | 284° |
| 2026-04-18 09:14 | -34.92644 | 150.48354 | 1690 ft | 93 kts | 293° |
| 2026-04-18 09:14 | -34.92487 | 150.47592 | 1766 ft | 97 kts | 280° |
| 2026-04-18 09:15 | -34.92319 | 150.46794 | 1924 ft | 97 kts | 286° |
| 2026-04-18 09:15 | -34.92158 | 150.46005 | 1993 ft | 95 kts | 277° |
| 2026-04-18 09:15 | -34.92025 | 150.45212 | 2021 ft | 95 kts | 274° |
| 2026-04-18 09:15 | -34.91916 | 150.44434 | 2228 ft | 93 kts | 275° |
| 2026-04-18 09:16 | -34.91794 | 150.43597 | 2401 ft | 101 kts | 281° |
| 2026-04-18 09:16 | -34.91686 | 150.42796 | 2501 ft | 93 kts | 265° |
| 2026-04-18 09:16 | -34.91581 | 150.41968 | 2486 ft | 101 kts | 275° |
| 2026-04-18 09:16 | -34.91410 | 150.41167 | 2517 ft | 96 kts | 278° |
| 2026-04-18 09:17 | -34.91254 | 150.40366 | 2520 ft | 96 kts | 281° |
| 2026-04-18 09:17 | -34.91077 | 150.39534 | 2527 ft | 100 kts | 280° |
| 2026-04-18 09:17 | -34.90912 | 150.38725 | 2526 ft | 98 kts | 283° |
| 2026-04-18 09:17 | -34.90741 | 150.37926 | 2517 ft | 98 kts | 277° |
| 2026-04-18 09:18 | -34.90577 | 150.37117 | 2531 ft | 100 kts | 282° |
| 2026-04-18 09:18 | -34.90417 | 150.36319 | 2522 ft | 96 kts | 283° |
| 2026-04-18 09:18 | -34.90249 | 150.35532 | 2509 ft | 96 kts | 283° |
| 2026-04-18 09:18 | -34.90083 | 150.34718 | 2483 ft | 96 kts | 287° |
| 2026-04-18 09:19 | -34.89921 | 150.33919 | 2535 ft | 99 kts | 285° |
| 2026-04-18 09:19 | -34.89757 | 150.33124 | 2519 ft | 95 kts | 283° |
| 2026-04-18 09:19 | -34.89601 | 150.32320 | 2480 ft | 97 kts | 279° |
| 2026-04-18 09:19 | -34.89436 | 150.31546 | 2488 ft | 95 kts | 285° |
| 2026-04-18 09:20 | -34.89262 | 150.30734 | 2518 ft | 99 kts | 279° |
| 2026-04-18 09:20 | -34.89098 | 150.29925 | 2519 ft | 99 kts | 289° |
| 2026-04-18 09:20 | -34.88931 | 150.29126 | 2541 ft | 99 kts | 282° |
| 2026-04-18 09:20 | -34.88787 | 150.28305 | 2536 ft | 98 kts | 281° |
| 2026-04-18 09:21 | -34.88627 | 150.27521 | 2477 ft | 91 kts | 284° |
| 2026-04-18 09:21 | -34.88390 | 150.26791 | 2497 ft | 97 kts | 295° |
| 2026-04-18 09:21 | -34.88112 | 150.26031 | 2443 ft | 102 kts | 298° |
| 2026-04-18 09:21 | -34.87853 | 150.25249 | 2534 ft | 100 kts | 291° |
| 2026-04-18 09:22 | -34.87633 | 150.24446 | 2555 ft | 99 kts | 290° |
| 2026-04-18 09:22 | -34.87360 | 150.23653 | 2510 ft | 100 kts | 290° |
| 2026-04-18 09:22 | -34.87138 | 150.22903 | 2548 ft | 92 kts | 295° |
| 2026-04-18 09:22 | -34.86863 | 150.22128 | 2494 ft | 104 kts | 297° |
| 2026-04-18 09:23 | -34.86584 | 150.21364 | 2540 ft | 97 kts | 294° |
| 2026-04-18 09:23 | -34.86345 | 150.20634 | 2851 ft | 88 kts | 300° |
| 2026-04-18 09:23 | -34.86095 | 150.19931 | 3185 ft | 96 kts | 295° |
| 2026-04-18 09:23 | -34.85793 | 150.19139 | 3327 ft | 111 kts | 293° |
| 2026-04-18 09:24 | -34.85547 | 150.18275 | 3481 ft | 100 kts | 285° |
| 2026-04-18 09:24 | -34.85383 | 150.17400 | 3323 ft | 120 kts | 266° |
| 2026-04-18 09:24 | -34.85437 | 150.16394 | 3315 ft | 117 kts | 275° |
| 2026-04-18 09:24 | -34.85251 | 150.15475 | 3275 ft | 122 kts | 283° |
| 2026-04-18 09:25 | -34.85097 | 150.14609 | 3642 ft | 68 kts | 284° |
| 2026-04-18 09:25 | -34.84988 | 150.14319 | 3727 ft | 38 kts | 296° |
| 2026-04-18 09:25 | -34.84747 | 150.13924 | 3785 ft | 72 kts | 296° |
| 2026-04-18 09:25 | -34.84448 | 150.13298 | 3824 ft | 103 kts | 297° |
| 2026-04-18 09:26 | -34.84067 | 150.12411 | 3676 ft | 132 kts | 295° |
| 2026-04-18 09:26 | -34.83675 | 150.11302 | 3426 ft | 154 kts | 290° |
| 2026-04-18 09:26 | -34.83895 | 150.10294 | 3861 ft | 117 kts | 238° |
| 2026-04-18 09:26 | -34.84295 | 150.09376 | 3779 ft | 131 kts | 240° |
| 2026-04-18 09:27 | -34.84641 | 150.08331 | 3622 ft | 134 kts | 262° |
| 2026-04-18 09:27 | -34.84403 | 150.07271 | 3432 ft | 134 kts | 300° |
| 2026-04-18 09:27 | -34.84098 | 150.06201 | 3185 ft | 134 kts | 276° |
| 2026-04-18 09:27 | -34.84149 | 150.05237 | 3298 ft | 86 kts | 258° |
| 2026-04-18 09:28 | -34.84114 | 150.04620 | 3323 ft | 80 kts | 307° |
| 2026-04-18 09:28 | -34.83493 | 150.04182 | 3046 ft | 124 kts | 345° |
| 2026-04-18 09:28 | -34.82600 | 150.03909 | 2896 ft | 140 kts | 352° |
| 2026-04-18 09:28 | -34.81774 | 150.03468 | 3188 ft | 125 kts | 326° |
| 2026-04-18 09:29 | -34.81202 | 150.02835 | 3532 ft | 101 kts | 319° |
| 2026-04-18 09:29 | -34.80961 | 150.02159 | 3517 ft | 95 kts | 245° |
| 2026-04-18 09:29 | -34.81289 | 150.01416 | 3316 ft | 101 kts | 255° |
| 2026-04-18 09:29 | -34.81027 | 150.00607 | 2973 ft | 92 kts | 315° |
| 2026-04-18 09:30 | -34.80721 | 150.00145 | 2944 ft | 62 kts | 320° |
| 2026-04-18 09:30 | -34.80507 | 149.99603 | 2943 ft | 78 kts | 300° |
| 2026-04-18 09:30 | -34.80179 | 149.98981 | 2978 ft | 92 kts | 308° |
| 2026-04-18 09:30 | -34.79829 | 149.98341 | 3158 ft | 81 kts | 305° |
| 2026-04-18 09:31 | -34.79577 | 149.97842 | 3387 ft | 66 kts | 313° |
| 2026-04-18 09:31 | -34.79307 | 149.97397 | 3415 ft | 65 kts | 311° |
| 2026-04-18 09:31 | -34.79038 | 149.96933 | 3430 ft | 67 kts | 308° |
| 2026-04-18 09:31 | -34.78784 | 149.96455 | 3443 ft | 68 kts | 305° |
| 2026-04-18 09:32 | -34.78542 | 149.95950 | 3463 ft | 69 kts | 302° |
| 2026-04-18 09:32 | -34.78316 | 149.95424 | 3489 ft | 70 kts | 299° |
| 2026-04-18 09:32 | -34.78109 | 149.94879 | 3513 ft | 71 kts | 296° |
| 2026-04-18 09:32 | -34.78033 | 149.94292 | 3542 ft | 71 kts | 268° |
| 2026-04-18 09:33 | -34.78074 | 149.93690 | 3570 ft | 71 kts | 263° |
| 2026-04-18 09:33 | -34.78121 | 149.93100 | 3609 ft | 70 kts | 263° |
| 2026-04-18 09:33 | -34.78172 | 149.92506 | 3629 ft | 69 kts | 263° |
| 2026-04-18 09:33 | -34.78267 | 149.91930 | 3668 ft | 69 kts | 253° |
| 2026-04-18 09:34 | -34.78383 | 149.91368 | 3692 ft | 68 kts | 253° |
| 2026-04-18 09:34 | -34.78492 | 149.90805 | 3708 ft | 68 kts | 254° |
| 2026-04-18 09:34 | -34.78603 | 149.90250 | 3713 ft | 67 kts | 255° |
| 2026-04-18 09:34 | -34.78715 | 149.89694 | 3739 ft | 67 kts | 254° |
| 2026-04-18 09:35 | -34.78825 | 149.89143 | 3749 ft | 66 kts | 255° |
| 2026-04-18 09:35 | -34.78933 | 149.88596 | 3768 ft | 66 kts | 255° |
| 2026-04-18 09:35 | -34.79036 | 149.88049 | 3779 ft | 66 kts | 255° |
| 2026-04-18 09:35 | -34.79137 | 149.87508 | 3799 ft | 65 kts | 255° |
| 2026-04-18 09:36 | -34.79239 | 149.86969 | 3807 ft | 65 kts | 255° |
| 2026-04-18 09:36 | -34.79343 | 149.86432 | 3824 ft | 65 kts | 255° |
| 2026-04-18 09:36 | -34.79449 | 149.85899 | 3836 ft | 64 kts | 255° |
| 2026-04-18 09:36 | -34.79556 | 149.85378 | 3851 ft | 64 kts | 255° |
| 2026-04-18 09:37 | -34.79665 | 149.84853 | 3865 ft | 63 kts | 255° |
| 2026-04-18 09:37 | -34.79776 | 149.84328 | 3878 ft | 63 kts | 255° |
| 2026-04-18 09:37 | -34.79886 | 149.83806 | 3889 ft | 63 kts | 255° |
| 2026-04-18 09:37 | -34.79996 | 149.83290 | 3903 ft | 63 kts | 255° |
| 2026-04-18 09:38 | -34.80105 | 149.82777 | 3910 ft | 63 kts | 255° |
| 2026-04-18 09:38 | -34.80215 | 149.82260 | 3919 ft | 62 kts | 255° |
| 2026-04-18 09:38 | -34.80323 | 149.81751 | 3924 ft | 62 kts | 255° |
| 2026-04-18 09:38 | -34.80430 | 149.81233 | 3925 ft | 62 kts | 255° |
| 2026-04-18 09:39 | -34.80536 | 149.80725 | 3925 ft | 62 kts | 255° |
| 2026-04-18 09:39 | -34.80644 | 149.80220 | 3933 ft | 62 kts | 255° |
| 2026-04-18 09:39 | -34.80750 | 149.79710 | 3945 ft | 61 kts | 255° |
| 2026-04-18 09:39 | -34.80853 | 149.79208 | 3946 ft | 61 kts | 255° |
| 2026-04-18 09:40 | -34.80956 | 149.78699 | 3945 ft | 61 kts | 255° |
| 2026-04-18 09:40 | -34.81059 | 149.78191 | 3945 ft | 61 kts | 255° |
| 2026-04-18 09:40 | -34.81162 | 149.77692 | 3945 ft | 61 kts | 255° |
| 2026-04-18 09:40 | -34.81267 | 149.77190 | 3948 ft | 61 kts | 255° |
| 2026-04-18 09:41 | -34.81374 | 149.76688 | 3953 ft | 60 kts | 255° |
| 2026-04-18 09:41 | -34.81479 | 149.76189 | 3955 ft | 60 kts | 255° |
| 2026-04-18 09:41 | -34.81570 | 149.75693 | 3960 ft | 59 kts | 280° |
| 2026-04-18 09:41 | -34.81532 | 149.75200 | 3954 ft | 58 kts | 287° |
| 2026-04-18 09:42 | -34.81444 | 149.74719 | 3947 ft | 58 kts | 286° |
| 2026-04-18 09:42 | -34.81338 | 149.74242 | 3942 ft | 59 kts | 284° |
| 2026-04-18 09:42 | -34.81234 | 149.73752 | 3942 ft | 60 kts | 281° |
| 2026-04-18 09:42 | -34.81130 | 149.73256 | 3944 ft | 60 kts | 297° |
| 2026-04-18 09:43 | -34.80980 | 149.72850 | 3941 ft | 59 kts | 313° |
| 2026-04-18 09:43 | -34.80727 | 149.72461 | 3933 ft | 57 kts | 339° |
| 2026-04-18 09:43 | -34.80388 | 149.72208 | 3835 ft | 60 kts | 17° |
| 2026-04-18 09:43 | -34.79990 | 149.72269 | 3490 ft | 61 kts | 25° |
| 2026-04-18 09:44 | -34.79606 | 149.72446 | 3136 ft | 55 kts | 56° |
| 2026-04-18 09:44 | -34.79510 | 149.72864 | 2811 ft | 56 kts | 114° |
| 2026-04-18 09:44 | -34.79723 | 149.73248 | 2552 ft | 55 kts | 138° |
| 2026-04-18 09:44 | -34.79976 | 149.73503 | 2374 ft | 41 kts | 177° |
| 2026-04-18 09:45 | -34.80251 | 149.73514 | 2252 ft | 37 kts | 214° |
| 2026-04-18 09:45 | -34.80442 | 149.73337 | 2163 ft | 28 kts | 231° |
| 2026-04-18 09:45 | -34.80536 | 149.73213 | 2112 ft | 10 kts | 232° |
| 2026-04-18 09:45 | -34.80568 | 149.73212 | 2117 ft | 8 kts | 162° |
| 2026-04-18 09:46 | -34.80609 | 149.73250 | 2111 ft | 4 kts | 92° |
| 2026-04-18 09:46 | -34.80627 | 149.73292 | 2105 ft | 3 kts | 51° |
| 2026-04-18 09:46 | -34.80621 | 149.73299 | 2101 ft | 1 kts | 45° |
| 2026-04-18 09:46 | -34.80618 | 149.73303 | 2098 ft | 1 kts | 44° |
| 2026-04-18 09:47 | -34.80614 | 149.73308 | 2095 ft | 0 kts | 37° |